Time;durP1;ratioP1;P1;durP2;ratioP2;P2;SDS_P1;SDS_P2;PMS_P1;PMS_P2;Temp;Humidity;BMP_temperature;BMP_pressure;BME280_temperature;BME280_humidity;BME280_pressure;Samples;Min_cycle;Max_cycle;Signal;HPM_P1;HPM_P2
2023/06/18 00:01:51;;;;;;;22.70;16.58;;;15.30;99.90;;;14.28;98.73;101016.19;4971333;28;20928;-75
2023/06/18 00:04:17;;;;;;;20.88;15.20;;;15.30;99.90;;;14.22;99.48;101005.94;4963578;28;20041;-75
2023/06/18 00:06:43;;;;;;;;;;;15.30;99.90;;;14.18;100.00;101016.81;4979467;28;20590;-75
2023/06/18 00:09:09;;;;;;;18.80;14.60;;;15.20;99.90;;;14.16;100.00;101011.59;4973185;28;19917;-75
2023/06/18 00:11:35;;;;;;;33.38;19.42;;;15.20;99.90;;;14.19;100.00;101011.44;4970314;28;20403;-74
2023/06/18 00:14:00;;;;;;;;;;;15.20;99.90;;;14.22;100.00;101015.69;4989080;28;20170;-75
2023/06/18 00:16:26;;;;;;;45.08;28.33;;;15.20;99.90;;;14.16;100.00;101011.59;4970552;28;20881;-75
2023/06/18 00:18:52;;;;;;;48.22;31.58;;;15.20;99.90;;;14.15;100.00;101009.91;4959310;28;20042;-75
2023/06/18 00:21:18;;;;;;;49.78;32.60;;;15.20;99.90;;;14.21;100.00;101020.16;4967894;28;20487;-74
2023/06/18 00:23:43;;;;;;;;;;;15.20;99.90;;;14.23;100.00;101020.03;4964499;28;20023;-75
2023/06/18 00:26:09;;;;;;;39.80;30.85;;;15.20;99.90;;;14.23;100.00;101015.59;4989443;28;19914;-74
2023/06/18 00:28:35;;;;;;;;;;;15.20;99.90;;;14.28;100.00;101028.59;4978103;28;20104;-74
2023/06/18 00:31:01;;;;;;;38.38;28.80;;;15.30;99.90;;;14.30;100.00;101016.97;4963896;28;20072;-74
2023/06/18 00:33:27;;;;;;;35.40;27.15;;;15.30;99.90;;;14.37;100.00;101025.41;4972635;28;20046;-75
2023/06/18 00:35:56;;;;;;;41.42;28.98;;;15.40;99.90;;;14.42;100.00;101020.69;4962334;28;20048;-75
2023/06/18 00:38:27;;;;;;;46.72;31.95;;;15.40;99.90;;;14.46;100.00;101022.22;4965357;28;20090;-75
2023/06/18 00:40:53;;;;;;;39.42;29.85;;;15.50;99.90;;;14.49;100.00;101019.41;4951783;28;20030;-74
2023/06/18 00:43:19;;;;;;;41.17;29.77;;;15.50;99.90;;;14.52;100.00;101013.91;4962914;28;20054;-74
2023/06/18 00:45:46;;;;;;;43.08;30.10;;;15.60;99.90;;;14.57;100.00;101016.31;4968008;28;20046;-76
2023/06/18 00:48:13;;;;;;;41.38;29.52;;;15.60;99.90;;;14.60;100.00;101020.59;4971493;28;20058;-74
2023/06/18 00:50:41;;;;;;;48.10;31.05;;;15.60;99.90;;;14.60;100.00;101020.59;4945246;28;20060;-75
2023/06/18 00:53:08;;;;;;;35.88;27.30;;;15.70;99.90;;;14.70;100.00;101016.47;4960527;28;20734;-75
2023/06/18 00:55:37;;;;;;;41.92;29.48;;;15.70;99.90;;;14.76;100.00;101021.41;4968828;28;20034;-77
2023/06/18 00:58:05;;;;;;;45.17;32.72;;;15.70;99.90;;;14.79;100.00;101021.19;4971152;28;20048;-74
2023/06/18 01:00:33;;;;;;;42.75;32.25;;;15.70;99.90;;;14.81;100.00;101008.72;4963559;28;20566;-75
2023/06/18 01:03:15;;;;;;;38.72;28.25;;;15.80;99.90;;;14.84;100.00;101013.84;4970436;28;20063;-75
2023/06/18 01:05:47;;;;;;;41.00;28.02;;;15.80;99.90;;;14.85;100.00;101012.88;4973512;28;20062;-75
2023/06/18 01:08:13;;;;;;;37.22;27.90;;;15.80;99.90;;;14.86;100.00;101017.25;4968738;28;20027;-75
2023/06/18 01:10:40;;;;;;;38.95;25.77;;;15.80;99.90;;;14.86;100.00;101011.09;4962951;28;20129;-75
2023/06/18 01:13:14;;;;;;;34.70;25.70;;;15.80;99.90;;;14.89;100.00;101009.13;4972014;28;20195;-75
2023/06/18 01:15:40;;;;;;;33.17;25.20;;;15.80;99.90;;;14.89;100.00;101011.75;4953261;28;20050;-74
2023/06/18 01:18:07;;;;;;;40.17;26.35;;;15.90;99.90;;;14.93;100.00;101013.28;4970767;28;20027;-75
2023/06/18 01:20:41;;;;;;;34.15;22.55;;;15.90;99.90;;;14.96;100.00;101009.59;4969544;28;20133;-75
2023/06/18 01:23:25;;;;;;;30.58;23.67;;;16.40;99.90;;;14.98;100.00;101011.19;4961843;28;20030;-75
2023/06/18 01:25:52;;;;;;;27.88;22.45;;;15.90;99.90;;;15.02;100.00;101000.44;4960222;28;20046;-74
2023/06/18 01:28:26;;;;;;;29.33;24.08;;;15.90;99.90;;;15.04;100.00;101004.69;4960916;28;20080;-75
2023/06/18 01:30:53;;;;;;;31.65;25.20;;;16.00;99.90;;;15.05;100.00;100998.41;4969932;28;20058;-74
2023/06/18 01:33:21;;;;;;;36.05;27.80;;;16.00;99.90;;;15.07;100.00;101003.63;4963608;28;20038;-75
2023/06/18 01:35:48;;;;;;;35.58;27.25;;;16.00;99.90;;;15.07;100.00;101003.63;4971969;28;20039;-75
2023/06/18 01:38:34;;;;;;;38.60;28.52;;;16.00;99.90;;;15.10;100.00;101006.13;4969602;28;20042;-75
2023/06/18 01:41:14;;;;;;;41.40;28.30;;;16.00;99.90;;;15.09;100.00;101002.59;4971841;28;20031;-76
2023/06/18 01:43:57;;;;;;;37.33;28.10;;;16.00;99.90;;;15.08;100.00;101002.72;4959338;28;20034;-76
2023/06/18 01:46:35;;;;;;;37.40;27.65;;;16.00;99.90;;;15.08;100.00;101008.00;4986049;28;20113;-75
2023/06/18 01:49:06;;;;;;;35.97;27.98;;;16.00;99.90;;;15.07;100.00;101011.59;4962458;28;20117;-76
2023/06/18 01:51:33;;;;;;;30.80;26.00;;;16.00;99.90;;;15.03;100.00;101018.91;4953469;28;20120;-76
2023/06/18 01:54:05;;;;;;;39.33;28.00;;;16.00;99.90;;;15.01;100.00;101014.63;4967712;28;20034;-76
2023/06/18 01:56:33;;;;;;;32.28;22.90;;;15.90;99.90;;;14.97;100.00;101012.16;4968442;28;20035;-76
2023/06/18 01:58:59;;;;;;;32.97;23.75;;;15.90;99.90;;;14.95;100.00;101016.69;4954215;28;20165;-76
2023/06/18 02:01:26;;;;;;;28.20;23.27;;;15.90;99.90;;;14.96;100.00;101020.19;4972598;28;20174;-72
2023/06/18 02:03:52;;;;;;;29.65;23.88;;;15.90;99.90;;;14.93;100.00;101015.94;4970084;28;20038;-76
2023/06/18 02:06:18;;;;;;;35.75;24.95;;;15.90;99.90;;;14.94;100.00;101014.97;4944234;28;20053;-76
2023/06/18 02:08:44;;;;;;;34.85;24.58;;;15.90;99.90;;;14.96;100.00;101018.41;4967038;28;20038;-75
2023/06/18 02:11:10;;;;;;;36.83;27.88;;;15.90;99.90;;;14.97;100.00;101017.47;4962577;28;20454;-76
2023/06/18 02:13:36;;;;;;;34.55;25.05;;;15.90;99.90;;;14.96;100.00;101020.19;4969083;28;20101;-76
2023/06/18 02:16:02;;;;;;;39.90;29.13;;;15.90;99.90;;;14.96;100.00;101022.84;4969391;28;20037;-76
2023/06/18 02:18:27;;;;;;;;;;;15.90;99.90;;;14.89;100.00;101024.19;4969577;28;20038;-76
2023/06/18 02:20:53;;;;;;;47.90;31.00;;;15.80;99.90;;;14.84;100.00;101024.44;4969229;28;19918;-76
2023/06/18 02:23:19;;;;;;;;;;;15.80;99.90;;;14.82;100.00;101029.00;4957619;28;20043;-76
2023/06/18 02:25:45;;;;;;;44.88;31.00;;;15.80;99.90;;;14.81;100.00;101023.78;4970045;28;19913;-77
2023/06/18 02:28:11;;;;;;;46.60;31.75;;;15.80;99.90;;;14.84;100.00;101019.16;4971835;28;20522;-76
2023/06/18 02:30:37;;;;;;;40.65;31.15;;;15.80;99.90;;;14.85;100.00;101015.53;4963348;28;20045;-76
2023/06/18 02:33:07;;;;;;;46.47;32.72;;;15.80;99.90;;;14.84;100.00;101011.19;4968674;28;20059;-76
2023/06/18 02:35:34;;;;;;;45.30;31.80;;;15.80;99.90;;;14.81;100.00;101006.06;4971216;28;21000;-76
2023/06/18 02:38:00;;;;;;;40.28;29.33;;;15.80;99.90;;;14.83;100.00;101005.97;4966670;28;20451;-76
2023/06/18 02:40:25;;;;;;;42.35;29.13;;;15.80;99.90;;;14.83;100.00;101012.13;4969898;28;20130;-76
2023/06/18 02:42:52;;;;;;;;;;;15.80;99.90;;;14.78;100.00;101014.22;4958181;28;20042;-76
2023/06/18 02:45:24;;;;;;;32.95;25.63;;;15.70;99.90;;;14.76;100.00;101010.78;4958581;28;21003;-76
2023/06/18 02:47:50;;;;;;;39.17;27.80;;;15.70;99.90;;;14.76;100.00;101021.41;4969370;28;20034;-76
2023/06/18 02:50:18;;;;;;;58.58;34.90;;;15.70;99.90;;;14.75;100.00;101017.91;4964544;28;20046;-76
2023/06/18 02:52:45;;;;;;;32.60;25.65;;;15.60;99.90;;;14.69;100.00;101010.31;4943471;28;20038;-76
2023/06/18 02:55:11;;;;;;;44.08;30.63;;;15.70;99.90;;;14.68;100.00;101005.94;4951401;28;20034;-76
2023/06/18 02:57:39;;;;;;;42.75;28.75;;;15.60;99.90;;;14.70;100.00;101005.84;4971748;28;20030;-77
2023/06/18 03:00:11;;;;;;;34.53;25.05;;;15.60;99.90;;;14.71;100.00;101010.22;4968837;28;20038;-76
2023/06/18 03:02:39;;;;;;;43.72;28.50;;;15.60;99.90;;;14.72;100.00;101010.13;4983087;28;20038;-76
2023/06/18 03:05:05;;;;;;;36.00;26.20;;;15.60;99.90;;;14.75;100.00;101002.00;4944387;28;20112;-76
2023/06/18 03:07:33;;;;;;;36.88;27.75;;;15.60;99.90;;;14.76;100.00;101002.84;4955573;28;20518;-75
2023/06/18 03:09:59;;;;;;;35.15;25.77;;;15.60;99.90;;;14.79;100.00;101000.00;4961259;28;20031;-76
2023/06/18 03:12:25;;;;;;;35.65;25.83;;;15.70;99.90;;;14.82;100.00;101004.28;4983102;28;20074;-76
2023/06/18 03:14:51;;;;;;;37.85;26.95;;;15.70;99.90;;;14.86;100.00;101004.00;4969211;28;20030;-76
2023/06/18 03:17:17;;;;;;;33.38;25.42;;;15.80;99.90;;;14.92;100.00;101005.41;4970236;28;20087;-76
2023/06/18 03:19:43;;;;;;;29.92;23.23;;;15.80;99.90;;;14.95;100.00;101011.41;4983489;28;20038;-76
2023/06/18 03:22:10;;;;;;;30.15;23.83;;;16.50;99.90;;;15.02;100.00;101008.38;4950711;28;20041;-76
2023/06/18 03:24:38;;;;;;;35.67;26.02;;;15.90;99.90;;;15.09;100.00;101007.06;4967441;28;20046;-76
2023/06/18 03:27:04;;;;;;;29.98;24.10;;;15.90;99.90;;;15.18;100.00;101017.09;4968759;28;20410;-76
2023/06/18 03:29:30;;;;;;;36.67;28.05;;;16.00;99.90;;;15.24;100.00;101015.88;4958695;28;20039;-77
2023/06/18 03:31:56;;;;;;;37.65;26.58;;;16.10;99.90;;;15.29;100.00;101033.22;4962834;28;20053;-75
2023/06/18 03:34:23;;;;;;;42.90;28.80;;;16.10;99.90;;;15.36;100.00;101031.88;4957925;28;20073;-76
2023/06/18 03:36:49;;;;;;;31.77;25.95;;;16.20;99.90;;;15.42;100.00;101035.97;4957675;28;20035;-75
2023/06/18 03:39:16;;;;;;;35.35;26.77;;;16.20;99.90;;;15.48;100.00;101037.38;4951093;28;20454;-76
2023/06/18 03:41:42;;;;;;;33.95;24.95;;;16.30;99.90;;;15.51;100.00;101035.41;4968043;28;20026;-75
2023/06/18 03:44:08;;;;;;;32.88;25.05;;;16.30;99.90;;;15.55;100.00;101036.03;4958515;28;20067;-75
2023/06/18 03:46:35;;;;;;;42.03;30.23;;;16.40;99.90;;;15.54;100.00;101035.19;4982961;28;20045;-75
2023/06/18 03:49:01;;;;;;;36.28;26.77;;;16.40;99.90;;;15.54;100.00;101037.00;4966894;28;20026;-75
2023/06/18 03:51:27;;;;;;;39.35;28.27;;;16.40;99.90;;;15.53;100.00;101027.34;4966993;28;20034;-75
2023/06/18 03:53:53;;;;;;;43.90;30.90;;;16.40;99.90;;;15.53;100.00;101040.63;4971072;28;20073;-75
2023/06/18 03:56:20;;;;;;;38.13;27.88;;;16.40;99.90;;;15.52;100.00;101036.25;4956473;28;20034;-75
2023/06/18 03:58:48;;;;;;;35.80;27.65;;;16.40;99.90;;;15.51;100.00;101035.41;4978275;28;20042;-75
2023/06/18 04:01:14;;;;;;;40.67;30.23;;;16.40;99.90;;;15.52;100.00;101030.94;4968157;28;20101;-75
2023/06/18 04:03:40;;;;;;;41.25;28.85;;;16.40;99.90;;;15.53;100.00;101024.69;4968835;28;20388;-75
2023/06/18 04:06:06;;;;;;;37.25;27.80;;;16.40;99.90;;;15.54;100.00;101035.19;4966179;28;20042;-75
2023/06/18 04:08:34;;;;;;;43.45;27.48;;;16.40;99.90;;;15.57;100.00;101026.19;4976563;28;20429;-76
2023/06/18 04:11:02;;;;;;;40.15;29.67;;;16.40;99.90;;;15.60;100.00;101028.66;4967959;28;20039;-75
2023/06/18 04:13:28;;;;;;;40.33;29.40;;;16.50;99.90;;;15.62;100.00;101037.38;4951779;28;20061;-75
2023/06/18 04:15:54;;;;;;;41.20;30.05;;;16.50;99.90;;;15.63;100.00;101027.59;4968635;28;20039;-75
2023/06/18 04:18:20;;;;;;;;;;;16.50;99.90;;;15.59;100.00;101030.47;4966011;28;20039;-76
2023/06/18 04:20:47;;;;;;;45.75;30.33;;;16.50;99.90;;;15.55;100.00;101041.34;4953006;28;19976;-76
2023/06/18 04:23:13;;;;;;;39.15;29.48;;;16.40;99.90;;;15.56;100.00;101048.38;4958949;28;20531;-76
2023/06/18 04:25:39;;;;;;;41.53;30.40;;;16.50;99.90;;;15.62;100.00;101039.19;4968236;28;20137;-76
2023/06/18 04:28:05;;;;;;;41.03;27.77;;;16.50;99.90;;;15.65;100.00;101047.78;4967930;28;20035;-76
2023/06/18 04:30:31;;;;;;;42.20;25.83;;;16.50;99.90;;;15.73;100.00;101036.72;4966230;28;20047;-76
2023/06/18 04:32:57;;;;;;;35.42;25.08;;;16.60;99.90;;;15.81;100.00;101031.78;4965090;28;20046;-76
2023/06/18 04:35:23;;;;;;;36.00;24.50;;;16.70;99.90;;;15.92;100.00;101041.72;4953279;28;20041;-75
2023/06/18 04:37:49;;;;;;;33.90;24.63;;;16.80;99.90;;;16.01;100.00;101043.78;4960770;28;20027;-76
2023/06/18 04:40:15;;;;;;;30.85;23.25;;;16.90;99.90;;;16.07;100.00;101038.09;4943281;28;20042;-76
2023/06/18 04:42:41;;;;;;;29.67;22.88;;;16.90;99.90;;;16.11;100.00;101039.59;4970382;28;20041;-76
2023/06/18 04:45:09;;;;;;;34.08;23.10;;;16.90;99.90;;;16.14;100.00;101039.38;4971095;28;20031;-75
2023/06/18 04:47:35;;;;;;;32.40;23.92;;;17.00;99.90;;;16.19;100.00;101047.91;4971321;28;20035;-75
2023/06/18 04:50:03;;;;;;;26.92;22.40;;;17.00;99.90;;;16.28;100.00;101051.75;4970543;28;20034;-75
2023/06/18 04:52:29;;;;;;;33.47;25.02;;;17.10;99.90;;;16.35;100.00;101057.53;4959007;28;20066;-76
2023/06/18 04:54:55;;;;;;;34.88;24.10;;;17.20;99.90;;;16.47;100.00;101050.56;4970462;28;20030;-76
2023/06/18 04:57:22;;;;;;;30.88;23.33;;;17.30;99.90;;;16.61;100.00;101054.00;4972005;28;20106;-76
2023/06/18 04:59:47;;;;;;;31.48;22.08;;;17.50;99.90;;;16.81;100.00;101057.16;4971541;28;20085;-75
2023/06/18 05:02:14;;;;;;;31.27;22.10;;;17.70;99.90;;;17.40;100.00;101054.84;4967726;28;20617;-75
2023/06/18 05:04:40;;;;;;;28.00;21.63;;;17.90;99.90;;;17.49;99.02;101056.00;4962874;28;20115;-76
2023/06/18 05:07:07;;;;;;;26.20;20.77;;;18.10;99.90;;;17.59;97.64;101051.75;4972206;28;20499;-76
2023/06/18 05:09:32;;;;;;;25.85;20.98;;;18.30;99.90;;;17.82;95.86;101047.47;4969772;28;20042;-76
2023/06/18 05:11:58;;;;;;;26.27;19.73;;;18.50;99.90;;;18.10;93.90;101050.81;4969513;28;20402;-76
2023/06/18 05:14:25;;;;;;;24.33;19.27;;;18.70;99.90;;;18.72;91.41;101057.75;4954079;28;20039;-76
2023/06/18 05:16:51;;;;;;;26.98;19.08;;;19.00;99.90;;;18.78;88.80;101067.97;4951313;28;20381;-76
2023/06/18 05:19:17;;;;;;;23.52;19.23;;;19.20;99.90;;;18.83;88.80;101067.63;4978327;28;20109;-76
2023/06/18 05:21:43;;;;;;;;;;;19.20;99.90;;;18.69;88.55;101060.66;4960165;28;21571;-76
2023/06/18 05:24:09;;;;;;;25.98;18.58;;;19.30;99.90;;;18.76;88.63;101069.88;4973303;28;19913;-76
2023/06/18 05:26:35;;;;;;;24.23;18.92;;;19.30;99.90;;;18.82;88.71;101055.28;4971309;28;20619;-76
2023/06/18 05:29:01;;;;;;;21.73;17.63;;;19.40;99.90;;;18.73;89.09;101053.28;4963871;28;20141;-77
2023/06/18 05:31:30;;;;;;;25.98;17.65;;;19.40;99.90;;;18.75;88.72;101054.84;4951627;28;20125;-76
2023/06/18 05:33:55;;;;;;;23.08;18.08;;;19.50;99.90;;;18.87;88.58;101054.91;4969800;28;20092;-76
2023/06/18 05:36:24;;;;;;;20.95;15.70;;;19.70;99.90;;;19.46;86.45;101060.13;4950533;28;20043;-76
2023/06/18 05:38:53;;;;;;;22.05;17.67;;;19.80;99.90;;;19.34;85.86;101064.59;4971102;28;20057;-76
2023/06/18 05:41:19;;;;;;;20.05;15.05;;;19.90;99.90;;;19.26;86.13;101061.66;4961416;28;20035;-76
2023/06/18 05:43:45;;;;;;;20.30;15.90;;;19.90;99.90;;;19.03;85.55;101058.97;4946956;28;20046;-76
2023/06/18 05:46:10;;;;;;;21.13;16.45;;;19.80;99.90;;;19.00;87.56;101061.84;4960425;28;20046;-76
2023/06/18 05:48:36;;;;;;;25.77;17.88;;;19.70;99.90;;;19.00;88.04;101063.69;4970142;28;20042;-76
2023/06/18 05:51:02;;;;;;;;;;;19.70;99.90;;;19.06;88.38;101057.88;4961535;28;20031;-76
2023/06/18 05:53:28;;;;;;;19.50;16.27;;;19.80;99.90;;;19.09;88.04;101065.63;4977244;28;19918;-76
2023/06/18 05:55:53;;;;;;;;;;;19.80;99.90;;;19.31;87.31;101064.84;4953273;28;20121;-76
2023/06/18 05:58:20;;;;;;;25.42;16.48;;;19.90;99.90;;;19.43;86.84;101069.19;4971991;28;19913;-76
2023/06/18 06:00:46;;;;;;;23.98;15.88;;;20.10;99.90;;;19.57;86.76;101078.81;4960232;28;20130;-76
2023/06/18 06:03:11;;;;;;;26.73;16.23;;;20.10;99.90;;;19.56;85.74;101089.59;4969993;28;20174;-76
2023/06/18 06:05:37;;;;;;;20.45;16.40;;;20.20;99.90;;;19.53;85.77;101089.84;4972000;28;20035;-76
2023/06/18 06:08:03;;;;;;;;;;;20.20;99.90;;;19.38;85.42;101090.06;4970716;28;20050;-76
2023/06/18 06:10:32;;;;;;;21.40;15.17;;;20.10;99.90;;;19.32;86.24;101087.03;4954353;28;20001;-76
2023/06/18 06:12:57;;;;;;;19.17;14.45;;;20.00;99.90;;;19.19;86.30;101100.47;4958805;28;20038;-76
2023/06/18 06:15:23;;;;;;;20.35;13.90;;;19.90;99.90;;;19.11;86.77;101092.22;4966388;28;20061;-76
2023/06/18 06:17:49;;;;;;;;;;;19.90;99.90;;;19.06;86.43;101093.41;4968667;28;20047;-76
2023/06/18 06:20:15;;;;;;;19.10;11.32;;;19.90;99.90;;;19.15;86.18;101101.69;4952414;28;19921;-75
2023/06/18 06:22:41;;;;;;;13.98;11.20;;;19.90;99.90;;;19.21;85.22;101102.06;4968037;28;20534;-76
2023/06/18 06:25:07;;;;;;;;;;;20.00;99.90;;;19.26;85.02;101107.91;4961182;28;20047;-76
2023/06/18 06:27:33;;;;;;;14.30;10.63;;;20.00;99.90;;;19.31;84.18;101096.00;4968251;28;19926;-76
2023/06/18 06:30:01;;;;;;;16.02;11.15;;;20.10;99.90;;;19.40;83.89;101096.16;4944902;28;20035;-76
2023/06/18 06:32:28;;;;;;;15.23;10.63;;;20.20;99.90;;;19.52;83.52;101098.81;4953186;28;20066;-76
2023/06/18 06:34:53;;;;;;;14.20;10.23;;;20.20;99.90;;;19.59;83.28;101105.38;4942699;28;20437;-76
2023/06/18 06:37:19;;;;;;;12.45;9.25;;;20.30;99.90;;;19.61;81.85;101103.44;4971220;28;20034;-76
2023/06/18 06:39:45;;;;;;;12.05;9.25;;;20.30;99.90;;;19.53;81.54;101096.03;4970005;28;20030;-76
2023/06/18 06:42:12;;;;;;;;;;;20.30;99.90;;;19.58;81.65;101103.69;4966755;28;20503;-76
2023/06/18 06:44:37;;;;;;;9.98;8.18;;;20.30;99.90;;;19.60;80.96;101102.59;4952802;28;19914;-76
2023/06/18 06:47:04;;;;;;;14.05;9.52;;;20.30;99.90;;;19.70;81.03;101105.44;4969182;28;20062;-76
2023/06/18 06:49:30;;;;;;;13.68;9.68;;;20.40;99.90;;;19.70;80.45;101108.09;4967427;28;20034;-76
2023/06/18 06:51:56;;;;;;;12.90;10.32;;;20.40;99.90;;;19.76;80.77;101117.44;4968928;28;20146;-76
2023/06/18 06:54:22;;;;;;;13.23;10.00;;;20.50;99.90;;;19.82;80.73;101119.63;4943894;28;20422;-76
2023/06/18 06:56:48;;;;;;;13.32;9.95;;;20.50;99.90;;;19.77;81.65;101125.34;4970008;28;20027;-76
2023/06/18 06:59:14;;;;;;;16.98;11.23;;;20.40;99.90;;;19.62;81.23;101127.38;4968118;28;20037;-76
2023/06/18 07:01:42;;;;;;;20.70;10.32;;;20.40;99.90;;;19.61;81.13;101125.69;4969841;28;20061;-76
2023/06/18 07:04:10;;;;;;;11.93;8.48;;;20.40;99.90;;;19.64;80.19;101122.75;4967910;28;20487;-77
2023/06/18 07:06:38;;;;;;;13.18;9.10;;;20.40;99.90;;;19.69;79.70;101127.72;4965833;28;20129;-76
2023/06/18 07:09:09;;;;;;;10.52;8.10;;;20.40;99.90;;;19.59;80.44;101121.41;4959432;28;20023;-76
2023/06/18 07:11:40;;;;;;;11.60;9.27;;;20.50;99.90;;;19.77;79.80;101124.50;4966095;28;20031;-75
2023/06/18 07:14:06;;;;;;;10.73;8.90;;;20.60;99.90;;;20.01;79.11;101127.03;4953066;28;20041;-75
2023/06/18 07:16:33;;;;;;;12.85;8.57;;;20.70;99.90;;;20.13;77.91;101128.72;4944386;28;20511;-75
2023/06/18 07:19:06;;;;;;;10.65;8.88;;;20.70;99.90;;;20.04;76.58;101129.44;4933099;28;20049;-75
2023/06/18 07:21:32;;;;;;;11.40;8.68;;;20.70;99.90;;;19.99;77.47;101128.97;4935705;28;20035;-74
2023/06/18 07:23:58;;;;;;;9.00;6.80;;;20.90;99.90;;;20.23;76.75;101136.84;4958405;28;20130;-75
2023/06/18 07:26:24;;;;;;;;;;;20.90;99.90;;;20.40;75.80;101132.81;4966804;28;20049;-76
2023/06/18 07:28:50;;;;;;;8.23;5.82;;;21.10;99.90;;;20.55;75.19;101130.69;4950810;28;20553;-75
2023/06/18 07:31:16;;;;;;;10.00;6.85;;;21.20;99.90;;;20.51;73.94;101130.09;4957880;28;20059;-75
2023/06/18 07:33:41;;;;;;;18.88;6.82;;;21.10;99.90;;;20.40;72.77;101128.28;4973923;28;20388;-75
2023/06/18 07:36:07;;;;;;;;;;;21.20;99.90;;;20.39;73.83;101128.41;4949098;28;20178;-75
2023/06/18 07:38:33;;;;;;;9.60;6.68;;;21.20;99.90;;;20.57;73.42;101128.75;4969193;28;19918;-75
2023/06/18 07:40:59;;;;;;;10.25;6.22;;;21.20;99.90;;;20.47;71.60;101134.88;4960700;28;20027;-75
2023/06/18 07:43:24;;;;;;;;;;;21.20;99.90;;;20.58;71.29;101133.16;4967122;28;20041;-75
2023/06/18 07:45:50;;;;;;;8.18;6.70;;;21.30;99.90;;;20.79;71.90;101139.38;4967317;28;20681;-76
2023/06/18 07:48:17;;;;;;;11.60;6.97;;;21.50;99.90;;;20.90;71.17;101143.84;4968624;28;20444;-75
2023/06/18 07:50:47;;;;;;;8.63;6.63;;;21.70;99.90;;;21.20;71.15;101142.25;4969794;28;20125;-75
2023/06/18 07:53:13;;;;;;;8.07;5.38;;;21.80;99.90;;;21.16;68.73;101135.44;4957655;28;20094;-75
2023/06/18 07:55:39;;;;;;;7.07;5.13;;;21.70;99.90;;;20.86;67.71;101131.69;4967222;28;20042;-75
2023/06/18 07:58:05;;;;;;;6.47;5.60;;;21.80;99.90;;;21.04;68.75;101138.19;4967515;28;20519;-75
2023/06/18 08:00:31;;;;;;;8.13;6.10;;;21.90;99.90;;;21.31;68.36;101147.53;4984553;28;20045;-74
2023/06/18 08:02:57;;;;;;;9.50;6.30;;;22.00;99.90;;;21.60;67.48;101150.44;4966121;28;20031;-75
2023/06/18 08:05:22;;;;;;;;;;;22.10;99.90;;;21.88;66.23;101142.66;4967618;28;20042;-75
2023/06/18 08:07:48;;;;;;;7.90;4.80;;;22.50;99.90;;;22.23;64.92;101149.44;4948725;28;19968;-75
2023/06/18 08:10:14;;;;;;;8.55;6.10;;;22.80;99.90;;;22.56;64.47;101145.53;4959155;28;20034;-75
2023/06/18 08:12:40;;;;;;;8.88;5.38;;;23.10;99.90;;;22.82;63.46;101145.00;4973335;28;20498;-75
2023/06/18 08:15:06;;;;;;;7.80;5.70;;;23.30;99.90;;;22.91;61.87;101149.53;4971955;28;20037;-75
2023/06/18 08:17:32;;;;;;;7.53;6.03;;;23.20;99.90;;;22.55;61.55;101137.63;4968778;28;20097;-75
2023/06/18 08:19:58;;;;;;;8.63;6.10;;;23.30;99.90;;;22.66;62.99;101146.41;4969358;28;20030;-75
2023/06/18 08:22:25;;;;;;;;;;;23.30;99.90;;;22.70;63.09;101147.00;4954169;28;20086;-75
2023/06/18 08:24:51;;;;;;;8.90;6.07;;;23.40;99.90;;;22.77;64.05;101139.22;4946088;28;19929;-75
2023/06/18 08:27:19;;;;;;;7.65;5.72;;;23.30;99.90;;;22.73;63.53;101141.34;4971278;28;20035;-74
2023/06/18 08:29:45;;;;;;;6.82;4.85;;;23.40;99.90;;;22.85;63.72;101145.59;4958962;28;20039;-75
2023/06/18 08:32:13;;;;;;;6.40;4.43;;;23.50;99.90;;;22.99;62.90;101143.47;4954605;28;20479;-76
2023/06/18 08:34:42;;;;;;;6.10;4.47;;;23.60;99.90;;;23.03;61.79;101132.31;4971118;28;20035;-75
2023/06/18 08:37:10;;;;;;;6.43;4.45;;;23.60;99.90;;;23.10;61.59;101141.47;4963163;28;20659;-74
2023/06/18 08:39:36;;;;;;;6.13;5.00;;;23.70;99.90;;;23.14;61.84;101148.28;4970074;28;20050;-75
2023/06/18 08:42:03;;;;;;;12.00;5.68;;;23.70;99.90;;;23.20;62.46;101154.06;4962279;28;20050;-74
2023/06/18 08:44:36;;;;;;;7.10;5.40;;;23.80;99.90;;;23.22;62.22;101157.44;4951237;28;21247;-75
2023/06/18 08:47:03;;;;;;;5.90;4.60;;;23.80;99.90;;;23.25;62.11;101151.81;4947207;28;20046;-75
2023/06/18 08:49:33;;;;;;;9.02;5.28;;;23.80;99.90;;;23.24;62.38;101150.09;4965084;28;20050;-75
2023/06/18 08:52:09;;;;;;;9.35;5.93;;;23.80;99.90;;;23.21;62.55;101151.22;4976350;28;20038;-75
2023/06/18 08:54:37;;;;;;;6.28;5.50;;;23.80;99.90;;;23.24;63.43;101145.59;4969558;28;20036;-75
2023/06/18 08:57:33;;;;;;;6.93;5.68;;;23.80;99.90;;;23.35;62.54;101139.19;4988115;28;20030;-75
2023/06/18 09:00:00;;;;;;;10.02;6.07;;;23.90;99.90;;;23.47;62.11;101146.09;4961188;28;20039;-75
2023/06/18 09:02:27;;;;;;;11.05;5.70;;;24.00;99.90;;;23.63;61.31;101155.38;4970772;28;20026;-75
2023/06/18 09:05:00;;;;;;;9.32;5.47;;;24.20;99.90;;;23.80;61.33;101154.66;4973192;28;20438;-75
2023/06/18 09:07:26;;;;;;;10.20;5.53;;;24.30;99.90;;;23.97;60.73;101157.56;4959968;28;20069;-76
2023/06/18 09:09:52;;;;;;;5.75;5.15;;;24.50;99.90;;;24.20;60.14;101161.56;4962809;28;20027;-75
2023/06/18 09:12:18;;;;;;;8.20;5.35;;;24.60;99.90;;;24.35;59.70;101162.72;4949786;28;20562;-75
2023/06/18 09:14:46;;;;;;;6.22;5.10;;;24.80;99.90;;;24.58;58.82;101164.19;4973266;28;20052;-75
2023/06/18 09:17:16;;;;;;;8.57;5.65;;;25.00;99.90;;;24.74;58.49;101161.66;4944983;28;20030;-76
2023/06/18 09:19:43;;;;;;;6.22;5.22;;;25.20;99.90;;;24.98;58.88;101169.13;4962548;28;20491;-75
2023/06/18 09:22:20;;;;;;;10.82;5.82;;;25.30;99.90;;;25.09;58.25;101168.88;4969351;28;20062;-75
2023/06/18 09:24:46;;;;;;;8.98;5.40;;;25.50;99.90;;;25.17;57.22;101170.81;4977258;28;20038;-75
2023/06/18 09:27:15;;;;;;;8.43;5.75;;;25.60;99.90;;;25.12;56.87;101162.34;4962676;28;20044;-75
2023/06/18 09:29:44;;;;;;;12.65;6.05;;;25.60;99.90;;;25.15;57.32;101168.25;4962339;28;20046;-75
2023/06/18 09:32:14;;;;;;;6.88;5.22;;;25.60;99.90;;;25.09;57.34;101163.47;4961878;28;20049;-75
2023/06/18 09:34:41;;;;;;;8.73;5.32;;;25.60;99.90;;;24.91;57.04;101165.34;4971437;28;20040;-75
2023/06/18 09:37:08;;;;;;;6.53;5.13;;;25.50;99.90;;;24.85;57.92;101163.28;4968470;28;20026;-75
2023/06/18 09:39:38;;;;;;;6.80;5.18;;;25.40;99.90;;;24.80;58.22;101162.91;4950314;28;20039;-75
2023/06/18 09:42:13;;;;;;;13.63;5.32;;;25.30;99.90;;;24.87;58.03;101164.81;4954548;28;20167;-75
2023/06/18 09:44:44;;;;;;;8.75;5.63;;;25.40;99.90;;;24.92;57.70;101177.81;4972717;28;20035;-76
2023/06/18 09:47:14;;;;;;;7.03;4.60;;;25.50;99.90;;;25.06;57.92;101177.28;4970808;28;20033;-75
2023/06/18 09:49:45;;;;;;;8.10;4.93;;;25.60;99.90;;;25.21;57.48;101169.53;4960561;28;20746;-75
2023/06/18 09:52:18;;;;;;;8.35;4.70;;;25.60;99.90;;;25.37;56.22;101168.78;4972040;28;20492;-76
2023/06/18 09:54:51;;;;;;;5.72;4.25;;;25.80;99.90;;;25.48;55.17;101176.59;4972215;28;20035;-75
2023/06/18 09:57:18;;;;;;;9.13;4.15;;;25.90;99.90;;;25.46;53.96;101175.91;4965401;28;20491;-75
2023/06/18 10:00:07;;;;;;;4.60;4.07;;;25.90;99.90;;;25.49;53.61;101177.47;4971630;28;20034;-74
2023/06/18 10:02:37;;;;;;;6.35;4.35;;;26.00;99.90;;;25.66;54.81;101178.41;4970291;28;20479;-75
2023/06/18 10:05:06;;;;;;;4.93;4.07;;;26.00;99.90;;;25.74;54.46;101175.75;4974805;28;20027;-75
2023/06/18 10:07:34;;;;;;;5.35;4.38;;;26.10;99.90;;;25.75;53.94;101178.31;4956393;28;20100;-75